createdAt,value
2018-05-12T00:05:13.397Z,15.00
2018-05-12T00:10:25.738Z,15.00
2018-05-12T00:15:29.925Z,14.90
2018-05-12T00:20:33.206Z,14.90
2018-05-12T00:25:39.086Z,14.90
2018-05-12T00:30:46.691Z,14.80
2018-05-12T00:35:50.944Z,14.70
2018-05-12T00:41:06.126Z,14.40
2018-05-12T00:46:10.130Z,14.30
2018-05-12T00:51:15.157Z,14.20
2018-05-12T00:56:18.335Z,14.10
2018-05-12T01:01:22.557Z,14.20
2018-05-12T01:06:25.911Z,14.10
2018-05-12T01:11:35.428Z,14.10
2018-05-12T01:16:40.503Z,14.10
2018-05-12T01:26:50.502Z,14.00
2018-05-12T01:31:54.574Z,14.00
2018-05-12T01:36:58.600Z,14.00
2018-05-12T01:42:03.508Z,13.90
2018-05-12T01:58:25.434Z,13.60
2018-05-12T02:04:07.905Z,13.50
2018-05-12T02:09:16.147Z,13.30
2018-05-12T02:14:19.328Z,13.20
2018-05-12T02:19:23.386Z,13.00
2018-05-12T02:24:28.058Z,12.90
2018-05-12T02:35:22.383Z,12.80
2018-05-12T02:40:27.200Z,12.80
2018-05-12T02:50:49.178Z,12.40
2018-05-12T02:56:30.779Z,12.40
2018-05-12T03:01:34.473Z,12.30
2018-05-12T03:07:19.233Z,12.30
2018-05-12T03:18:00.753Z,12.30
2018-05-12T03:23:07.284Z,12.30
2018-05-12T03:33:47.711Z,12.20
2018-05-12T03:38:52.396Z,12.10
2018-05-12T03:49:04.795Z,12.10
2018-05-12T03:54:09.443Z,12.00
2018-05-12T03:59:13.714Z,12.00
2018-05-12T04:04:37.249Z,12.10
2018-05-12T04:10:05.473Z,12.10
2018-05-12T04:15:10.739Z,12.20
2018-05-12T04:20:14.308Z,12.10
2018-05-12T04:25:19.140Z,12.30
2018-05-12T04:30:42.261Z,12.30
2018-05-12T04:35:46.672Z,12.30
2018-05-12T04:40:49.871Z,12.40
2018-05-12T04:45:53.909Z,12.40
2018-05-12T04:50:57.226Z,12.60
2018-05-12T04:56:00.790Z,12.70
2018-05-12T05:01:03.899Z,12.80
2018-05-12T05:06:24.060Z,12.80
2018-05-12T05:11:28.430Z,12.90
2018-05-12T05:16:32.265Z,13.10
2018-05-12T05:21:35.358Z,13.40
2018-05-12T05:26:38.869Z,13.80
2018-05-12T05:31:42.358Z,14.20
2018-05-12T05:36:45.469Z,14.80
2018-05-12T05:41:48.554Z,15.30
2018-05-12T05:57:00.890Z,16.10
2018-05-12T06:02:04.678Z,16.40
2018-05-12T06:07:08.152Z,17.10
2018-05-12T06:12:11.217Z,18.00
2018-05-12T06:17:14.706Z,18.10
2018-05-12T06:22:17.781Z,18.80
2018-05-12T06:27:20.883Z,19.50
2018-05-12T06:32:24.362Z,19.50
2018-05-12T06:37:28.230Z,20.00
2018-05-12T06:42:31.318Z,19.50
2018-05-12T06:47:35.173Z,19.90
2018-05-12T06:52:39.822Z,20.30
2018-05-12T06:57:43.632Z,20.10
2018-05-12T07:07:51.581Z,21.20
2018-05-12T07:12:55.435Z,21.20
2018-05-12T07:17:58.956Z,21.20
2018-05-12T07:23:02.041Z,22.00
2018-05-12T07:33:09.610Z,23.80
2018-05-12T07:38:12.681Z,23.50
2018-05-12T07:48:20.602Z,22.90
2018-05-12T07:53:24.549Z,22.80
2018-05-12T08:13:47.670Z,25.10
2018-05-12T08:18:51.527Z,24.20
2018-05-12T08:28:59.081Z,23.70
2018-05-12T08:34:02.203Z,24.80
2018-05-12T08:39:06.801Z,24.80
2018-05-12T08:49:14.665Z,25.70
2018-05-12T08:54:18.141Z,26.10
2018-05-12T08:59:22.634Z,25.70
2018-05-12T09:04:26.158Z,25.50
2018-05-12T09:14:35.231Z,23.80
2018-05-12T09:19:39.106Z,24.90
2018-05-12T09:24:42.948Z,25.40
2018-05-12T09:29:46.026Z,26.50
2018-05-12T09:39:55.071Z,27.10
2018-05-12T09:44:58.549Z,26.10
2018-05-12T09:50:01.654Z,24.90
2018-05-12T10:05:14.009Z,24.50
2018-05-12T10:30:34.865Z,24.00
2018-05-12T10:35:38.718Z,23.60
2018-05-12T10:40:42.561Z,24.20
2018-05-12T10:45:45.645Z,24.50
2018-05-12T10:50:48.729Z,24.70
2018-05-12T10:55:51.829Z,23.80
2018-05-12T11:00:55.683Z,24.00
2018-05-12T11:05:59.175Z,24.40
2018-05-12T11:16:07.243Z,24.20
2018-05-12T11:21:10.181Z,24.20
2018-05-12T11:26:13.273Z,24.20
2018-05-12T11:31:16.372Z,24.00
2018-05-12T11:36:19.458Z,23.50
2018-05-12T11:41:23.303Z,23.90
2018-05-12T11:46:26.382Z,24.10
2018-05-12T11:51:29.918Z,24.40
2018-05-12T11:56:34.106Z,24.50
2018-05-12T12:01:37.953Z,24.10
2018-05-12T12:11:46.614Z,24.40
2018-05-12T12:16:50.834Z,24.10
2018-05-12T12:21:53.907Z,23.90
2018-05-12T12:26:58.129Z,23.80
2018-05-12T12:32:01.218Z,24.00
2018-05-12T12:37:05.429Z,23.90
2018-05-12T12:42:09.653Z,23.90
2018-05-12T12:47:13.517Z,23.90
2018-05-12T12:57:22.554Z,23.90
2018-05-12T13:02:25.649Z,24.20
2018-05-12T13:07:28.733Z,24.00
2018-05-12T13:12:31.819Z,23.80
2018-05-12T13:27:45.215Z,24.00
2018-05-12T13:42:57.115Z,24.50
2018-05-12T13:48:01.346Z,24.40
2018-05-12T13:53:06.220Z,24.50
2018-05-12T13:58:09.705Z,24.50
2018-05-12T14:03:12.790Z,24.50
2018-05-12T14:08:15.883Z,24.30
2018-05-12T14:18:24.165Z,24.60
2018-05-12T14:38:42.054Z,24.60
2018-05-12T14:48:49.998Z,24.40
2018-05-12T14:53:54.263Z,24.40
2018-05-12T14:58:57.367Z,24.40
2018-05-12T15:04:00.458Z,24.60
2018-05-12T15:09:04.697Z,24.50
2018-05-12T15:14:09.613Z,24.40
2018-05-12T15:19:13.841Z,24.40
2018-05-12T15:24:16.942Z,24.40
2018-05-12T15:29:21.182Z,24.40
2018-05-12T15:34:24.269Z,24.20
2018-05-12T15:44:32.557Z,24.20
2018-05-12T15:49:35.641Z,24.20
2018-05-12T15:54:38.730Z,24.00
2018-05-12T15:59:41.827Z,24.00
2018-05-12T16:09:49.864Z,23.90
2018-05-12T16:14:52.978Z,23.90
2018-05-12T16:19:57.198Z,23.90
2018-05-12T16:25:00.676Z,23.80
2018-05-12T16:30:04.531Z,23.90
2018-05-12T16:35:08.426Z,23.90
2018-05-12T16:45:15.969Z,24.00
2018-05-12T16:50:19.858Z,23.90
2018-05-12T16:55:23.327Z,23.90
2018-05-12T17:00:27.389Z,23.90
2018-05-12T17:05:30.897Z,23.90
2018-05-12T17:10:34.363Z,23.80
2018-05-12T17:15:37.666Z,23.80
2018-05-12T17:20:40.747Z,23.70
2018-05-12T17:25:45.959Z,23.70
2018-05-12T17:30:49.437Z,23.60
2018-05-12T17:35:53.295Z,23.60
2018-05-12T17:46:01.567Z,23.40
2018-05-12T17:51:05.788Z,23.40
2018-05-12T18:01:14.525Z,23.20
2018-05-12T18:06:19.125Z,23.10
2018-05-12T18:11:22.225Z,23.00
2018-05-12T18:16:26.083Z,22.90
2018-05-12T18:31:38.465Z,22.50
2018-05-12T18:36:41.553Z,22.30
2018-05-12T18:41:44.634Z,22.20
2018-05-12T18:46:48.869Z,22.00
2018-05-12T18:51:53.261Z,21.70
2018-05-12T19:02:01.924Z,21.40
2018-05-12T19:07:05.408Z,21.20
2018-05-12T19:27:22.616Z,20.40
2018-05-12T19:32:27.194Z,20.10
2018-05-12T19:37:31.841Z,20.00
2018-05-12T19:42:35.695Z,19.80
2018-05-12T19:47:39.027Z,19.60
2018-05-12T19:52:43.307Z,19.50
2018-05-12T20:02:51.369Z,19.20
2018-05-12T20:07:55.168Z,19.10
2018-05-12T20:18:03.291Z,19.00
2018-05-12T20:28:12.041Z,19.00
2018-05-12T20:38:20.386Z,18.90
2018-05-12T20:43:23.877Z,18.80
2018-05-12T20:48:27.352Z,18.70
2018-05-12T20:53:31.258Z,18.50
2018-05-12T20:58:35.125Z,18.40
2018-05-12T21:03:38.646Z,18.30
2018-05-12T21:13:49.363Z,18.00
2018-05-12T21:18:52.476Z,18.00
2018-05-12T21:23:55.667Z,18.20
2018-05-12T21:28:59.894Z,18.40
2018-05-12T21:34:03.078Z,18.40
2018-05-12T21:39:07.786Z,18.40
2018-05-12T21:44:12.394Z,18.40
2018-05-12T21:49:15.478Z,18.40
2018-05-12T21:54:18.574Z,18.50
2018-05-12T21:59:22.458Z,18.60
2018-05-12T22:04:25.577Z,18.50
2018-05-12T22:19:39.878Z,18.50
2018-05-12T22:24:44.076Z,18.40
2018-05-12T22:29:47.221Z,18.40
2018-05-12T22:34:50.318Z,18.30
2018-05-12T22:39:54.215Z,18.30
2018-05-12T22:44:57.684Z,18.30
2018-05-12T22:50:00.847Z,18.30
2018-05-12T22:55:03.991Z,18.30
2018-05-12T23:00:07.921Z,18.20
2018-05-12T23:05:11.035Z,18.10
2018-05-12T23:10:15.392Z,17.90
2018-05-12T23:15:19.712Z,17.60
2018-05-12T23:20:22.943Z,17.50
2018-05-12T23:25:27.704Z,17.40
2018-05-12T23:30:31.958Z,17.20
2018-05-12T23:35:35.280Z,17.20
2018-05-12T23:40:39.132Z,17.10
2018-05-12T23:45:42.655Z,16.90
2018-05-12T23:50:45.743Z,16.80
2018-05-12T23:55:49.591Z,16.70
